createdAt,value
2023-07-14T00:00:56.865Z,32.30
2023-07-14T00:03:46.222Z,32.27
2023-07-14T00:06:36.956Z,32.29
2023-07-14T00:09:27.024Z,32.31
2023-07-14T00:12:15.664Z,32.24
2023-07-14T00:15:04.655Z,32.16
2023-07-14T00:17:58.431Z,32.05
2023-07-14T00:20:49.266Z,32.06
2023-07-14T00:23:38.067Z,32.18
2023-07-14T00:26:27.623Z,32.16
2023-07-14T00:29:31.470Z,32.19
2023-07-14T00:32:21.370Z,32.22
2023-07-14T00:35:20.222Z,32.22
2023-07-14T00:38:09.370Z,32.21
2023-07-14T00:40:57.731Z,32.04
2023-07-14T00:43:49.876Z,31.87
2023-07-14T00:46:38.802Z,31.63
2023-07-14T00:49:36.520Z,31.49
2023-07-14T00:52:29.297Z,31.29
2023-07-14T00:55:36.590Z,31.27
2023-07-14T00:58:26.243Z,31.16
2023-07-14T01:01:23.606Z,31.14
2023-07-14T01:04:12.117Z,31.21
2023-07-14T01:07:00.098Z,31.30
2023-07-14T01:09:48.942Z,31.33
2023-07-14T01:12:38.521Z,31.28
2023-07-14T01:15:26.796Z,31.21
2023-07-14T01:18:15.423Z,31.13
2023-07-14T01:21:03.349Z,31.04
2023-07-14T01:23:59.435Z,30.97
2023-07-14T01:27:05.840Z,30.80
2023-07-14T01:29:54.465Z,30.69
2023-07-14T01:32:45.228Z,30.56
2023-07-14T01:35:36.597Z,30.46
2023-07-14T01:38:25.413Z,30.47
2023-07-14T01:41:14.074Z,30.35
2023-07-14T01:44:04.113Z,30.32
2023-07-14T01:46:52.502Z,30.28
2023-07-14T01:49:44.143Z,30.15
2023-07-14T01:52:32.441Z,30.13
2023-07-14T01:55:22.023Z,30.13
2023-07-14T01:58:17.715Z,30.10
2023-07-14T02:01:05.488Z,30.02
2023-07-14T02:03:55.128Z,29.96
2023-07-14T02:06:44.005Z,30.04
2023-07-14T02:09:32.073Z,30.05
2023-07-14T02:12:29.291Z,30.08
2023-07-14T02:15:18.967Z,30.11
2023-07-14T02:18:10.836Z,30.18
2023-07-14T02:20:59.086Z,30.21
2023-07-14T02:23:47.211Z,30.25
2023-07-14T02:26:37.121Z,30.25
2023-07-14T02:29:26.329Z,30.21
2023-07-14T02:32:32.905Z,30.25
2023-07-14T02:35:30.807Z,30.20
2023-07-14T02:38:19.141Z,30.13
2023-07-14T02:41:37.913Z,30.03
2023-07-14T02:44:33.997Z,30.02
2023-07-14T02:47:23.593Z,29.98
2023-07-14T02:50:12.028Z,28.67
2023-07-14T02:53:00.885Z,27.27
2023-07-14T02:55:49.451Z,27.54
2023-07-14T02:58:37.639Z,27.29
2023-07-14T03:01:26.391Z,27.35
2023-07-14T03:04:14.614Z,27.93
2023-07-14T03:07:03.301Z,27.89
2023-07-14T03:09:51.862Z,28.18
2023-07-14T03:12:40.199Z,28.45
2023-07-14T03:15:28.839Z,28.54
2023-07-14T03:18:17.378Z,28.62
2023-07-14T03:21:05.806Z,28.71
2023-07-14T03:23:54.558Z,28.39
2023-07-14T03:26:42.823Z,28.56
2023-07-14T03:29:31.320Z,29.00
2023-07-14T03:32:19.612Z,29.28
2023-07-14T03:35:08.368Z,29.53
2023-07-14T03:37:56.661Z,29.67
2023-07-14T03:40:45.044Z,29.84
2023-07-14T03:43:35.752Z,29.94
2023-07-14T03:46:24.283Z,30.04
2023-07-14T03:49:13.760Z,30.11
2023-07-14T03:52:01.463Z,30.35
2023-07-14T03:54:52.452Z,30.51
2023-07-14T04:00:34.061Z,30.87
2023-07-14T04:03:22.379Z,30.92
2023-07-14T04:06:10.716Z,30.88
2023-07-14T04:09:00.376Z,30.88
2023-07-14T04:11:52.452Z,30.99
2023-07-14T04:14:41.241Z,30.97
2023-07-14T04:17:30.121Z,30.98
2023-07-14T04:20:18.265Z,31.00
2023-07-14T04:23:06.277Z,30.96
2023-07-14T04:25:54.938Z,30.91
2023-07-14T04:28:43.313Z,30.88
2023-07-14T04:31:31.805Z,30.86
2023-07-14T04:34:20.139Z,30.84
2023-07-14T04:37:08.585Z,30.84
2023-07-14T04:39:58.500Z,30.92
2023-07-14T04:42:48.279Z,30.89
2023-07-14T04:45:46.580Z,30.90
2023-07-14T04:48:35.744Z,30.97
2023-07-14T04:51:23.710Z,30.96
2023-07-14T04:54:11.716Z,30.90
2023-07-14T04:57:00.066Z,30.84
2023-07-14T04:59:47.917Z,30.84
2023-07-14T05:02:37.816Z,30.85
2023-07-14T05:05:27.069Z,30.79
2023-07-14T05:08:15.428Z,30.82
2023-07-14T05:11:03.872Z,30.98
2023-07-14T05:13:52.893Z,31.19
2023-07-14T05:16:41.221Z,31.27
2023-07-14T05:19:29.933Z,31.34
2023-07-14T05:22:17.878Z,31.60
2023-07-14T05:25:06.622Z,31.94
2023-07-14T05:27:54.855Z,32.30
2023-07-14T05:30:43.260Z,32.52
2023-07-14T05:33:31.356Z,32.36
2023-07-14T05:36:20.249Z,32.16
2023-07-14T05:39:08.568Z,32.21
2023-07-14T05:41:59.673Z,32.09
2023-07-14T05:44:47.728Z,31.29
2023-07-14T05:47:37.931Z,31.10
2023-07-14T05:50:25.866Z,31.42
2023-07-14T05:53:15.641Z,31.70
2023-07-14T05:56:04.687Z,31.78
2023-07-14T05:58:52.598Z,31.76
2023-07-14T06:01:40.738Z,31.55
2023-07-14T06:04:30.848Z,31.53
2023-07-14T06:07:19.305Z,31.53
2023-07-14T06:10:08.357Z,31.47
2023-07-14T06:12:56.644Z,31.38
2023-07-14T06:15:50.447Z,31.20
2023-07-14T06:18:39.104Z,31.03
2023-07-14T06:21:27.767Z,31.03
2023-07-14T06:24:16.080Z,31.04
2023-07-14T06:27:07.964Z,31.13
2023-07-14T06:29:59.802Z,31.23
2023-07-14T06:32:49.242Z,31.35
2023-07-14T06:35:38.170Z,31.48
2023-07-14T06:38:27.450Z,31.57
2023-07-14T06:41:15.807Z,31.63
2023-07-14T06:44:19.766Z,31.92
2023-07-14T06:47:56.814Z,32.51
2023-07-14T06:51:29.922Z,33.05
2023-07-14T06:55:02.610Z,33.53
2023-07-14T06:58:35.011Z,33.83
2023-07-14T07:02:08.047Z,34.09
2023-07-14T07:05:22.013Z,33.54
2023-07-14T07:08:57.544Z,33.98
2023-07-14T07:12:32.628Z,34.13
2023-07-14T07:16:07.091Z,34.20
2023-07-14T07:19:45.400Z,34.62
2023-07-14T07:23:20.669Z,34.88
2023-07-14T07:26:55.812Z,35.06
2023-07-14T07:30:32.271Z,35.16
2023-07-14T07:34:09.360Z,35.17
2023-07-14T07:37:43.975Z,35.12
2023-07-14T07:41:18.943Z,35.25
2023-07-14T07:44:54.477Z,35.29
2023-07-14T07:48:29.278Z,35.24
2023-07-14T07:52:30.800Z,35.17
2023-07-14T07:56:29.742Z,35.07
2023-07-14T08:00:31.483Z,35.01
2023-07-14T08:04:30.862Z,34.74
2023-07-14T08:08:32.521Z,34.58
2023-07-14T08:12:31.990Z,34.33
2023-07-14T08:16:33.956Z,34.19
2023-07-14T08:20:32.874Z,34.10
2023-07-14T08:24:35.053Z,33.92
2023-07-14T08:28:34.137Z,33.82
2023-07-14T08:32:35.940Z,33.61
2023-07-14T08:36:34.946Z,33.40
2023-07-14T08:40:36.796Z,33.21
2023-07-14T08:44:38.603Z,33.23
2023-07-14T08:48:41.596Z,33.18
2023-07-14T08:52:41.077Z,33.03
2023-07-14T08:56:45.634Z,33.01
2023-07-14T09:00:44.778Z,32.92
2023-07-14T09:04:46.377Z,32.17
2023-07-14T09:08:45.900Z,31.18
2023-07-14T09:12:46.716Z,30.46
2023-07-14T09:16:45.976Z,30.11
2023-07-14T09:20:48.393Z,29.98
2023-07-14T09:24:46.917Z,29.85
2023-07-14T09:28:49.360Z,29.76
2023-07-14T09:32:47.856Z,29.89
2023-07-14T09:36:45.773Z,30.21
2023-07-14T09:40:47.982Z,30.48
2023-07-14T09:44:48.902Z,30.88
2023-07-14T09:48:50.421Z,30.84
2023-07-14T09:52:48.925Z,31.02
2023-07-14T09:56:51.353Z,31.20
2023-07-14T10:00:51.044Z,31.25
2023-07-14T10:04:53.960Z,31.27
2023-07-14T10:08:53.993Z,31.31
2023-07-14T10:12:55.800Z,31.52
2023-07-14T10:16:54.013Z,31.80
2023-07-14T10:20:56.943Z,32.03
2023-07-14T10:24:56.060Z,32.35
2023-07-14T10:28:59.709Z,32.59
2023-07-14T10:32:57.065Z,32.79
2023-07-14T10:36:58.634Z,32.92
2023-07-14T10:40:56.965Z,32.94
2023-07-14T10:45:08.002Z,32.98
2023-07-14T10:49:08.952Z,33.17
2023-07-14T10:53:07.001Z,33.25
2023-07-14T10:57:08.955Z,33.27
2023-07-14T11:01:06.946Z,33.49
2023-07-14T11:05:08.745Z,33.98
2023-07-14T11:09:07.120Z,34.20
2023-07-14T11:13:09.180Z,34.29
2023-07-14T11:17:07.079Z,34.34
2023-07-14T11:21:08.643Z,34.37
2023-07-14T11:25:07.245Z,34.42
2023-07-14T11:29:08.640Z,34.45
2023-07-14T11:33:07.120Z,34.96
2023-07-14T11:37:08.678Z,35.28
2023-07-14T11:41:05.965Z,35.57
2023-07-14T11:45:07.029Z,35.74
2023-07-14T11:49:05.120Z,35.73
2023-07-14T11:53:07.257Z,35.52
2023-07-14T11:57:05.252Z,35.56
2023-07-14T12:01:06.739Z,35.77
2023-07-14T12:05:05.156Z,36.23
2023-07-14T12:09:07.119Z,36.49
2023-07-14T12:13:05.247Z,36.15
2023-07-14T12:17:06.782Z,35.98
2023-07-14T12:21:05.182Z,35.89
2023-07-14T12:25:07.885Z,35.79
2023-07-14T12:29:07.478Z,35.89
2023-07-14T12:33:09.369Z,35.97
2023-07-14T12:37:08.406Z,36.23
2023-07-14T12:41:08.510Z,36.36
2023-07-14T12:45:04.422Z,36.71
2023-07-14T12:49:04.425Z,36.74
2023-07-14T12:53:00.246Z,36.45
2023-07-14T12:57:00.011Z,36.50
2023-07-14T13:00:55.395Z,36.65
2023-07-14T13:04:55.540Z,36.46
2023-07-14T13:08:52.461Z,35.86
2023-07-14T13:12:52.040Z,35.77
2023-07-14T13:16:47.714Z,35.64
2023-07-14T13:20:48.126Z,35.77
2023-07-14T13:24:44.371Z,35.83
2023-07-14T13:28:45.834Z,35.79
2023-07-14T13:32:26.466Z,35.74
2023-07-14T13:36:22.743Z,36.16
2023-07-14T13:40:22.248Z,36.63
2023-07-14T13:44:18.496Z,36.71
2023-07-14T13:48:18.091Z,37.00
2023-07-14T13:52:14.421Z,37.38
2023-07-14T13:56:14.440Z,37.97
2023-07-14T14:00:10.874Z,38.55
2023-07-14T14:04:10.538Z,38.86
2023-07-14T14:08:07.873Z,39.04
2023-07-14T14:12:08.441Z,39.35
2023-07-14T14:16:07.129Z,39.55
2023-07-14T14:20:06.690Z,39.61
2023-07-14T14:24:03.532Z,39.62
2023-07-14T14:28:06.826Z,39.67
2023-07-14T14:32:02.905Z,39.67
2023-07-14T14:36:02.414Z,39.60
2023-07-14T14:39:59.133Z,39.56
2023-07-14T14:43:16.909Z,39.59
2023-07-14T14:46:06.598Z,39.47
2023-07-14T14:48:58.521Z,39.24
2023-07-14T14:51:47.218Z,38.96
2023-07-14T14:54:36.919Z,38.52
2023-07-14T14:57:25.831Z,38.31
2023-07-14T15:00:20.711Z,38.15
2023-07-14T15:03:11.305Z,37.96
2023-07-14T15:06:00.944Z,37.80
2023-07-14T15:08:51.885Z,37.63
2023-07-14T15:11:46.388Z,37.48
2023-07-14T15:14:36.807Z,37.22
2023-07-14T15:17:28.022Z,36.96
2023-07-14T15:20:17.121Z,36.86
2023-07-14T15:23:10.896Z,36.72
2023-07-14T15:26:02.162Z,36.52
2023-07-14T15:28:51.664Z,36.40
2023-07-14T15:31:44.777Z,36.20
2023-07-14T15:34:33.349Z,36.09
2023-07-14T15:37:22.253Z,36.07
2023-07-14T15:40:15.780Z,35.99
2023-07-14T15:43:16.213Z,35.88
2023-07-14T15:46:05.189Z,35.80
2023-07-14T15:48:56.139Z,35.68
2023-07-14T15:51:45.380Z,35.75
2023-07-14T15:54:48.782Z,35.85
2023-07-14T15:57:48.430Z,35.83
2023-07-14T16:00:37.746Z,35.74
2023-07-14T16:03:28.226Z,35.57
2023-07-14T16:06:17.650Z,35.52
2023-07-14T16:09:06.622Z,35.42
2023-07-14T16:11:56.976Z,35.34
2023-07-14T16:14:46.213Z,35.35
2023-07-14T16:17:35.436Z,35.25
2023-07-14T16:20:25.784Z,35.11
2023-07-14T16:23:23.266Z,35.12
2023-07-14T16:26:12.120Z,34.88
2023-07-14T16:29:07.708Z,34.69
2023-07-14T16:31:57.301Z,34.51
2023-07-14T16:34:47.439Z,34.40
2023-07-14T16:37:36.625Z,34.42
2023-07-14T16:40:27.948Z,34.37
2023-07-14T16:43:21.166Z,34.28
2023-07-14T16:46:10.364Z,34.19
2023-07-14T16:48:58.921Z,34.11
2023-07-14T16:51:49.847Z,34.04
2023-07-14T16:54:39.212Z,33.95
2023-07-14T16:57:29.298Z,33.90
2023-07-14T17:00:28.929Z,33.84
2023-07-14T17:03:19.341Z,33.81
2023-07-14T17:06:11.675Z,33.69
2023-07-14T17:09:01.951Z,33.65
2023-07-14T17:11:51.785Z,33.50
2023-07-14T17:14:43.873Z,33.30
2023-07-14T17:17:34.347Z,33.20
2023-07-14T17:20:23.643Z,33.17
2023-07-14T17:23:16.416Z,33.10
2023-07-14T17:26:05.612Z,32.92
2023-07-14T17:28:54.182Z,32.74
2023-07-14T17:31:43.491Z,32.64
2023-07-14T17:34:32.701Z,32.53
2023-07-14T17:37:22.741Z,32.44
2023-07-14T17:40:15.496Z,32.35
2023-07-14T17:43:10.891Z,32.25
2023-07-14T17:45:59.667Z,32.20
2023-07-14T17:48:48.598Z,32.15
2023-07-14T17:51:37.479Z,32.07
2023-07-14T17:54:27.809Z,31.96
2023-07-14T17:57:17.538Z,31.87
2023-07-14T18:00:07.220Z,31.83
2023-07-14T18:03:00.108Z,31.80
2023-07-14T18:05:49.236Z,31.67
2023-07-14T18:08:39.265Z,31.61
2023-07-14T18:11:27.904Z,31.60
2023-07-14T18:14:21.722Z,31.59
2023-07-14T18:17:20.722Z,31.63
2023-07-14T18:20:14.732Z,31.63
2023-07-14T18:23:04.060Z,31.60
2023-07-14T18:25:53.099Z,31.59
2023-07-14T18:28:43.874Z,31.58
2023-07-14T18:31:32.814Z,31.47
2023-07-14T18:34:21.679Z,31.47
2023-07-14T18:37:11.431Z,31.49
2023-07-14T18:40:00.385Z,31.44
2023-07-14T18:42:50.564Z,31.45
2023-07-14T18:45:39.943Z,31.29
2023-07-14T18:48:29.418Z,31.15
2023-07-14T18:51:23.542Z,31.03
2023-07-14T18:54:22.726Z,30.94
2023-07-14T18:57:19.084Z,30.89
2023-07-14T19:00:11.350Z,30.73
2023-07-14T19:02:59.825Z,30.59
2023-07-14T19:05:49.306Z,30.48
2023-07-14T19:08:38.910Z,30.40
2023-07-14T19:11:29.374Z,30.32
2023-07-14T19:14:22.031Z,30.21
2023-07-14T19:17:14.467Z,30.14
2023-07-14T19:20:04.822Z,30.05
2023-07-14T19:22:54.243Z,29.97
2023-07-14T19:25:42.492Z,29.85
2023-07-14T19:28:33.699Z,29.76
2023-07-14T19:31:27.814Z,29.68
2023-07-14T19:34:23.458Z,29.65
2023-07-14T19:37:13.193Z,29.68
2023-07-14T19:40:02.119Z,29.62
2023-07-14T19:42:53.229Z,29.54
2023-07-14T19:45:42.423Z,29.34
2023-07-14T19:48:31.258Z,29.14
2023-07-14T19:51:24.162Z,29.04
2023-07-14T19:54:17.559Z,28.93
2023-07-14T19:57:16.240Z,28.95
2023-07-14T20:00:12.220Z,28.89
2023-07-14T20:03:05.970Z,28.76
2023-07-14T20:05:55.727Z,28.70
2023-07-14T20:08:48.334Z,28.57
2023-07-14T20:11:37.871Z,28.46
2023-07-14T20:14:32.822Z,28.35
2023-07-14T20:17:22.487Z,28.27
2023-07-14T20:20:14.564Z,28.24
2023-07-14T20:23:03.545Z,28.20
2023-07-14T20:25:53.511Z,28.17
2023-07-14T20:28:41.778Z,28.10
2023-07-14T20:31:30.171Z,28.03
2023-07-14T20:34:19.657Z,27.97
2023-07-14T20:37:15.574Z,27.92
2023-07-14T20:40:04.181Z,27.90
2023-07-14T20:42:53.068Z,27.89
2023-07-14T20:45:42.307Z,27.86
2023-07-14T20:48:31.294Z,27.86
2023-07-14T20:51:19.667Z,27.78
2023-07-14T20:54:09.321Z,27.68
2023-07-14T20:56:58.328Z,27.60
2023-07-14T20:59:46.785Z,27.52
2023-07-14T21:02:37.524Z,27.54
2023-07-14T21:05:25.835Z,27.46
2023-07-14T21:08:21.365Z,27.41
2023-07-14T21:11:16.233Z,27.46
2023-07-14T21:14:04.309Z,27.44
2023-07-14T21:16:54.968Z,27.28
2023-07-14T21:19:42.938Z,27.48
2023-07-14T21:22:31.891Z,27.56
2023-07-14T21:25:23.055Z,27.65
2023-07-14T21:28:15.299Z,27.62
2023-07-14T21:31:05.841Z,27.62
2023-07-14T21:33:54.246Z,27.52
2023-07-14T21:36:47.298Z,27.51
2023-07-14T21:39:35.788Z,27.60
2023-07-14T21:42:24.567Z,27.45
2023-07-14T21:45:15.754Z,27.44
2023-07-14T21:48:10.697Z,27.50
2023-07-14T21:50:59.996Z,27.56
2023-07-14T21:53:50.755Z,27.53
2023-07-14T21:56:38.983Z,27.46
2023-07-14T21:59:27.779Z,27.45
2023-07-14T22:02:16.494Z,27.47
2023-07-14T22:05:12.511Z,27.50
2023-07-14T22:08:00.956Z,27.51
2023-07-14T22:10:51.263Z,27.51
2023-07-14T22:13:40.010Z,27.40
2023-07-14T22:16:29.551Z,27.32
2023-07-14T22:19:18.626Z,27.24
2023-07-14T22:22:09.103Z,27.24
2023-07-14T22:24:57.488Z,27.19
2023-07-14T22:27:46.219Z,27.18
2023-07-14T22:30:36.041Z,27.16
2023-07-14T22:33:29.268Z,27.13
2023-07-14T22:36:18.359Z,27.11
2023-07-14T22:39:18.746Z,27.16
2023-07-14T22:42:10.667Z,27.29
2023-07-14T22:44:59.134Z,27.40
2023-07-14T22:47:49.074Z,27.35
2023-07-14T22:50:37.827Z,27.44
2023-07-14T22:53:28.464Z,27.43
2023-07-14T22:56:16.958Z,27.40
2023-07-14T22:59:07.297Z,27.41
2023-07-14T23:01:57.207Z,27.44
2023-07-14T23:04:46.328Z,27.41
2023-07-14T23:07:35.176Z,27.37
2023-07-14T23:10:23.852Z,27.38
2023-07-14T23:13:13.410Z,27.36
2023-07-14T23:16:04.053Z,27.33
2023-07-14T23:18:55.774Z,27.35
2023-07-14T23:21:45.092Z,27.33
2023-07-14T23:24:34.502Z,27.32
2023-07-14T23:27:22.945Z,27.31
2023-07-14T23:30:13.119Z,27.23
2023-07-14T23:33:01.285Z,27.23
2023-07-14T23:35:50.460Z,27.27
2023-07-14T23:38:40.447Z,27.18
2023-07-14T23:41:30.721Z,27.09
2023-07-14T23:44:20.125Z,27.08
2023-07-14T23:47:11.901Z,27.06
2023-07-14T23:50:01.240Z,26.94
2023-07-14T23:52:50.644Z,26.84
2023-07-14T23:55:39.212Z,26.84
2023-07-14T23:58:29.847Z,26.83
